EIWF

Waterford Airport

Waterford, Ireland
METAR EIWF 152030Z 26007KT 200V300 9999 SCT008 15/14 Q1010
Observed Flight Rules
Aug-15 @ 20:30 UTC (2 hours ago) Visual Flight Rules
Wind Visibility Clouds
260° at 7 knots 10,000+ meters
  • Scattered at 800' AGL
Temperatures Readings
Current 15°C / 59°F
Dewpoint 14°C / 57°F
Humidity 94%
Altimeter 29.82" Hg
Pressure 1010 hPa
Elevation 36
METAR EIWF 152030Z 26007KT 200V300 9999 SCT008 15/14 Q1010
Observed Flight Rules
Aug-15 @ 20:30 UTC
(2 hours ago)
VFR
Wind Visibility
260° at 7 knots 10,000+ meters
Clouds
  • Scattered at 800' AGL
Temperature Dewpoint
15°C / 59°F 14°C / 57°F
Humidity Altimeter Pressure
94% 29.82" Hg 1010 hPa